Time;durP1;ratioP1;P1;durP2;ratioP2;P2;SDS_P1;SDS_P2;PMS_P1;PMS_P2;Temp;Humidity;BMP_temperature;BMP_pressure;BME280_temperature;BME280_humidity;BME280_pressure;Samples;Min_cycle;Max_cycle;Signal;HPM_P1;HPM_P2
2022/01/29 00:00:25;;;;;;;2.38;0.90;;;;;;;12.06;100.00;100512.78;5133568;27;20043;-87
2022/01/29 00:02:52;;;;;;;3.03;0.90;;;;;;;11.99;100.00;100536.72;5096888;28;20139;-87
2022/01/29 00:05:18;;;;;;;3.35;1.20;;;;;;;11.29;100.00;100474.28;5101495;27;20119;-88
2022/01/29 00:07:45;;;;;;;1.65;0.90;;;;;;;11.34;100.00;100474.09;5116743;27;20047;-87
2022/01/29 00:10:13;;;;;;;2.03;1.00;;;;;;;12.02;100.00;100526.94;5135569;27;20134;-86
2022/01/29 00:12:41;;;;;;;3.00;1.02;;;;;;;11.78;100.00;100507.94;5126861;27;20061;-87
2022/01/29 00:15:08;;;;;;;3.50;0.93;;;;;;;12.08;100.00;100510.91;5135710;27;20057;-87
2022/01/29 00:17:35;;;;;;;1.65;0.88;;;;;;;12.08;100.00;100512.69;5116908;27;20397;-87
2022/01/29 00:20:03;;;;;;;2.00;0.90;;;;;;;12.38;100.00;100541.00;5118050;27;20047;-87
2022/01/29 00:22:30;;;;;;;1.35;0.80;;;;;;;12.12;100.00;100515.09;5135042;27;20047;-87
2022/01/29 00:24:58;;;;;;;2.03;0.90;;;;;;;12.23;100.00;100521.59;5135636;27;20387;-86
2022/01/29 00:27:28;;;;;;;2.42;0.80;;;;;;;12.12;100.00;100530.84;5110837;28;20055;-86
2022/01/29 00:29:55;;;;;;;2.30;0.90;;;;;;;12.28;100.00;100523.09;5131691;27;20043;-86
2022/01/29 00:32:23;;;;;;;0.75;0.70;;;;;;;12.57;100.00;100509.47;5117554;27;20047;-86
2022/01/29 00:34:50;;;;;;;3.15;0.88;;;;;;;12.35;100.00;100492.13;5126057;27;20047;-86
2022/01/29 00:37:17;;;;;;;1.65;0.90;;;;;;;12.53;100.00;100493.00;5124196;27;20047;-87
2022/01/29 00:39:43;;;;;;;1.13;0.80;;;;;;;12.34;100.00;100483.44;5103828;27;20047;-86
2022/01/29 00:42:10;;;;;;;6.57;0.90;;;;;;;12.15;100.00;100467.72;5128987;27;20130;-86
2022/01/29 00:44:42;;;;;;;2.33;0.95;;;;;;;12.39;100.00;100487.59;5126487;27;20058;-86
2022/01/29 00:47:09;;;;;;;2.38;0.90;;;;;;;12.19;100.00;100476.28;5105537;27;20058;-86
2022/01/29 00:49:36;;;;;;;1.42;0.80;;;;;;;12.22;100.00;100470.06;5124200;27;20122;-87
2022/01/29 00:52:03;;;;;;;1.35;0.90;;;;;;;12.09;100.00;100472.41;5115857;27;20058;-86
2022/01/29 00:54:30;;;;;;;2.05;0.85;;;;;;;11.98;100.00;100443.22;5129180;27;20640;-86
2022/01/29 00:56:57;;;;;;;1.55;0.80;;;;;;;12.24;100.00;100476.91;5135654;27;20811;-86
2022/01/29 00:59:24;;;;;;;1.05;0.70;;;;;;;12.14;100.00;100439.75;5134904;27;20047;-86
2022/01/29 01:01:50;;;;;;;2.33;0.88;;;;;;;12.12;100.00;100453.88;5133911;27;20083;-86
2022/01/29 01:04:17;;;;;;;3.83;0.90;;;;;;;12.22;100.00;100456.94;5109244;28;20052;-87
2022/01/29 01:06:44;;;;;;;0.70;0.70;;;;;;;12.16;100.00;100444.94;5114241;27;20052;-87
2022/01/29 01:09:11;;;;;;;1.83;0.70;;;;;;;12.03;100.00;100404.47;5103121;27;20047;-87
2022/01/29 01:11:38;;;;;;;1.42;0.80;;;;;;;11.79;100.00;100399.44;5104392;28;20055;-87
2022/01/29 01:14:04;;;;;;;0.82;0.70;;;;;;;11.85;100.00;100408.81;5115195;28;20460;-87
2022/01/29 01:16:31;;;;;;;1.20;0.70;;;;;;;11.93;100.00;100420.69;5113160;28;20054;-87
2022/01/29 01:19:00;;;;;;;1.27;0.80;;;;;;;11.67;100.00;100411.41;5128987;27;20050;-86
2022/01/29 01:21:26;;;;;;;1.40;0.80;;;;;;;11.80;100.00;100408.19;5123753;27;20053;-87
2022/01/29 01:23:53;;;;;;;3.17;0.80;;;;;;;11.98;100.00;100420.44;5096160;28;20135;-87
2022/01/29 01:26:21;;;;;;;1.55;0.80;;;;;;;11.90;100.00;100430.44;5119815;27;20043;-84
2022/01/29 01:28:48;;;;;;;1.10;0.80;;;;;;;12.01;100.00;100395.84;5133808;27;20047;-85
2022/01/29 01:31:15;;;;;;;1.23;0.80;;;;;;;11.92;100.00;100395.34;5115733;27;20051;-85
2022/01/29 01:33:43;;;;;;;2.28;0.80;;;;;;;11.63;100.00;100393.25;5125101;27;20069;-85
2022/01/29 01:36:10;;;;;;;1.52;0.82;;;;;;;12.04;100.00;100380.81;5103269;28;20481;-85
2022/01/29 01:38:45;;;;;;;2.28;0.80;;;;;;;11.89;100.00;100368.38;5113051;28;20846;-86
2022/01/29 01:41:15;;;;;;;2.33;0.80;;;;;;;11.59;100.00;100355.84;5104798;27;20051;-85
2022/01/29 01:43:42;;;;;;;2.75;0.80;;;;;;;11.76;100.00;100347.16;5116745;27;20047;-84
2022/01/29 01:46:09;;;;;;;2.05;0.93;;;;;;;11.80;100.00;100374.09;5116356;27;20142;-85
2022/01/29 01:48:35;;;;;;;1.83;0.90;;;;;;;11.76;100.00;100360.28;5134694;27;20446;-85
2022/01/29 01:51:02;;;;;;;3.30;0.90;;;;;;;11.70;100.00;100376.28;5115781;27;20472;-85
2022/01/29 01:53:29;;;;;;;1.17;0.73;;;;;;;11.95;100.00;100357.63;5134004;27;20043;-85
2022/01/29 01:55:56;;;;;;;2.28;0.90;;;;;;;11.97;100.00;100371.53;5115846;27;20746;-85
2022/01/29 01:58:23;;;;;;;1.42;0.80;;;;;;;11.83;100.00;100366.91;5116332;27;20130;-85
2022/01/29 02:00:50;;;;;;;3.15;1.00;;;;;;;11.89;100.00;100368.38;5128288;27;20477;-85
2022/01/29 02:03:16;;;;;;;2.55;0.90;;;;;;;11.70;100.00;100313.34;5127020;27;20400;-85
2022/01/29 02:05:46;;;;;;;4.05;2.17;;;;;;;11.82;100.00;100354.72;5133788;27;20488;-85
2022/01/29 02:08:14;;;;;;;1.27;0.80;;;;;;;11.86;100.00;100332.66;5115607;27;20050;-84
2022/01/29 02:10:45;;;;;;;1.63;0.80;;;;;;;11.88;100.00;100314.22;5115556;27;20130;-85
2022/01/29 02:13:12;;;;;;;2.08;0.93;;;;;;;11.83;100.00;100319.72;5116097;27;20047;-86
2022/01/29 02:15:39;;;;;;;2.58;0.82;;;;;;;11.64;100.00;100301.41;5115794;27;20059;-85
2022/01/29 02:18:12;;;;;;;2.45;0.88;;;;;;;11.72;100.00;100304.50;5134549;27;20054;-85
2022/01/29 02:20:40;;;;;;;1.30;0.80;;;;;;;11.65;100.00;100289.13;5116161;27;20455;-85
2022/01/29 02:23:06;;;;;;;0.80;0.70;;;;;;;11.92;100.00;100260.72;5114839;27;20051;-84
2022/01/29 02:25:38;;;;;;;1.80;0.80;;;;;;;11.88;100.00;100267.88;5115354;27;20129;-85
2022/01/29 02:28:12;;;;;;;1.63;0.80;;;;;;;12.11;100.00;100266.72;5115708;27;20057;-85
2022/01/29 02:30:42;;;;;;;1.98;0.93;;;;;;;11.55;100.00;100197.81;5132673;27;20396;-85
2022/01/29 02:33:13;;;;;;;2.88;1.02;;;;;;;11.81;100.00;100242.88;5115064;27;20047;-85
2022/01/29 02:35:46;;;;;;;1.13;0.70;;;;;;;12.07;100.00;100254.66;5112094;28;20070;-86
2022/01/29 02:38:16;;;;;;;1.15;0.70;;;;;;;12.10;100.00;100240.56;5118809;27;20122;-85
2022/01/29 02:40:48;;;;;;;2.63;1.05;;;;;;;11.36;100.00;100218.84;5098695;28;20043;-86
2022/01/29 02:43:20;;;;;;;2.22;0.90;;;;;;;11.36;100.00;100238.97;5133971;27;20391;-84
2022/01/29 02:45:48;;;;;;;1.45;0.80;;;;;;;11.95;100.00;100232.56;5115551;28;20399;-85
2022/01/29 02:48:15;;;;;;;1.35;0.80;;;;;;;11.45;100.00;100186.09;5115373;28;20057;-85
2022/01/29 02:50:42;;;;;;;3.63;0.90;;;;;;;11.62;100.00;100198.34;5114843;27;20047;-85
2022/01/29 02:53:09;;;;;;;1.42;0.80;;;;;;;11.69;100.00;100233.84;5133514;27;20049;-85
2022/01/29 02:55:36;;;;;;;1.80;0.80;;;;;;;11.96;100.00;100212.41;5134098;28;20051;-85
2022/01/29 02:58:03;;;;;;;1.30;0.90;;;;;;;12.03;100.00;100205.06;5132578;28;20495;-85
2022/01/29 03:00:30;;;;;;;1.05;0.80;;;;;;;11.92;100.00;100182.00;5130958;28;20512;-85
2022/01/29 03:02:57;;;;;;;1.58;0.73;;;;;;;12.08;100.00;100187.31;5114534;28;20058;-85
2022/01/29 03:05:24;;;;;;;0.80;0.70;;;;;;;12.31;100.00;100199.22;5110610;28;20052;-86
2022/01/29 03:07:51;;;;;;;1.75;0.90;;;;;;;12.20;100.00;100184.03;5112471;28;20107;-85
2022/01/29 03:10:18;;;;;;;2.40;1.00;;;;;;;12.23;100.00;100181.22;5094859;28;20126;-85
2022/01/29 03:12:45;;;;;;;3.90;1.08;;;;;;;12.36;100.00;100165.69;5133470;28;20046;-85
2022/01/29 03:15:12;;;;;;;2.65;1.10;;;;;;;12.26;100.00;100141.69;5115460;28;20400;-86
2022/01/29 03:17:41;;;;;;;3.33;1.00;;;;;;;12.51;100.00;100161.38;5133545;28;20126;-86
2022/01/29 03:20:09;;;;;;;5.88;1.20;;;;;;;12.38;100.00;100162.94;5118059;27;20047;-86
2022/01/29 03:22:37;;;;;;;3.53;1.10;;;;;;;12.83;100.00;100145.59;5153771;27;20496;-85
2022/01/29 03:25:06;;;;;;;1.90;0.90;;;;;;;13.10;100.00;100123.00;5154333;27;20074;-84
2022/01/29 03:27:32;;;;;;;2.70;0.90;;;;;;;13.08;100.00;100129.28;5098038;28;20392;-86
2022/01/29 03:29:59;;;;;;;2.90;0.93;;;;;;;13.05;100.00;100127.69;5094578;28;20048;-86
2022/01/29 03:32:26;;;;;;;4.60;1.20;;;;;;;12.84;100.00;100123.66;5121019;28;20066;-85
2022/01/29 03:34:53;;;;;;;4.88;1.10;;;;;;;13.24;100.00;100097.69;5094781;28;20477;-86
2022/01/29 03:37:20;;;;;;;2.72;1.13;;;;;;;13.15;100.00;100090.34;5105249;28;20498;-86
2022/01/29 03:39:47;;;;;;;4.28;1.10;;;;;;;13.41;100.00;100086.22;5132065;28;20392;-85
2022/01/29 03:42:15;;;;;;;2.42;0.80;;;;;;;13.38;100.00;100058.31;5132702;28;20095;-86
2022/01/29 03:44:42;;;;;;;4.95;1.20;;;;;;;13.53;100.00;100037.28;5133068;28;20481;-85
2022/01/29 03:47:10;;;;;;;8.27;1.80;;;;;;;13.78;100.00;100065.59;5132859;28;20404;-85
2022/01/29 03:49:37;;;;;;;4.07;0.95;;;;;;;13.81;100.00;100058.34;5132494;28;20047;-85
2022/01/29 03:52:04;;;;;;;5.05;0.90;;;;;;;13.69;100.00;100064.34;5132832;27;20047;-85
2022/01/29 03:54:30;;;;;;;2.63;0.90;;;;;;;13.62;100.00;100061.25;5136490;27;20061;-85
2022/01/29 03:56:57;;;;;;;3.72;1.10;;;;;;;13.92;100.00;100057.66;5136822;27;20051;-86
2022/01/29 03:59:24;;;;;;;4.35;1.00;;;;;;;13.76;100.00;100039.34;5117884;27;20043;-86
2022/01/29 04:01:51;;;;;;;2.17;0.82;;;;;;;13.91;100.00;100042.81;5120079;27;20050;-86
2022/01/29 04:04:18;;;;;;;3.15;0.90;;;;;;;13.90;100.00;100050.78;5153277;27;20048;-85
2022/01/29 04:06:44;;;;;;;9.60;1.42;;;;;;;13.88;100.00;100027.19;5114796;27;20054;-85
2022/01/29 04:09:12;;;;;;;3.35;1.20;;;;;;;13.72;100.00;99992.28;5115856;28;20043;-85
2022/01/29 04:11:39;;;;;;;2.22;0.85;;;;;;;13.57;100.00;99970.41;5107058;27;20134;-85
2022/01/29 04:14:16;;;;;;;7.00;1.17;;;;;;;13.56;100.00;99977.44;5108267;27;20134;-85
2022/01/29 04:16:44;;;;;;;5.30;1.13;;;;;;;14.02;100.00;99994.75;5136358;27;20396;-86
2022/01/29 04:19:12;;;;;;;4.55;1.25;;;;;;;13.65;100.00;99976.91;5117782;27;20051;-86
2022/01/29 04:21:41;;;;;;;7.75;1.55;;;;;;;13.35;100.00;99970.88;5116851;27;20132;-84
2022/01/29 04:24:08;;;;;;;7.10;1.17;;;;;;;13.65;100.00;99971.63;5135219;27;20055;-85
2022/01/29 04:26:35;;;;;;;6.15;1.30;;;;;;;13.50;100.00;99958.59;5117836;27;20058;-85
2022/01/29 04:29:07;;;;;;;5.68;1.30;;;;;;;13.73;100.00;99959.78;5117748;27;20047;-85
2022/01/29 04:32:18;;;;;;;4.65;1.10;;;;;;;13.44;100.00;99951.94;5136858;27;20047;-85
2022/01/29 04:34:30;;;;;;;4.88;1.13;;;;;;;13.79;100.00;99933.94;5142916;27;20403;-85
2022/01/29 04:36:56;;;;;;;6.07;1.33;;;;;;;13.64;100.00;99932.28;5114257;28;20059;-85
2022/01/29 04:39:24;;;;;;;3.88;1.05;;;;;;;13.74;100.00;99917.59;5097549;28;20104;-86
2022/01/29 04:41:50;;;;;;;1.88;0.93;;;;;;;13.47;100.00;99917.53;5115883;27;20047;-86
2022/01/29 04:44:17;;;;;;;10.27;2.47;;;;;;;13.46;100.00;99908.81;5117436;27;20053;-86
2022/01/29 04:46:44;;;;;;;3.95;1.20;;;;;;;13.61;100.00;99857.00;5117892;27;20047;-85
2022/01/29 04:49:11;;;;;;;6.03;1.40;;;;;;;13.74;100.00;99878.13;5135657;27;20051;-86
2022/01/29 04:51:38;;;;;;;4.47;1.00;;;;;;;13.55;100.00;99885.50;5113635;28;20404;-85
2022/01/29 04:54:05;;;;;;;4.72;1.40;;;;;;;13.23;100.00;99839.25;5096601;28;20497;-86
2022/01/29 04:56:32;;;;;;;4.25;1.20;;;;;;;13.08;100.00;99819.16;5133372;27;20404;-86
2022/01/29 04:58:58;;;;;;;9.02;1.65;;;;;;;13.46;100.00;99842.25;5135148;27;20137;-86
2022/01/29 05:01:25;;;;;;;7.03;1.35;;;;;;;13.25;100.00;99829.47;5113935;27;20043;-86
2022/01/29 05:03:52;;;;;;;5.38;1.20;;;;;;;13.42;100.00;99807.41;5120636;27;20579;-85
2022/01/29 05:06:20;;;;;;;6.65;1.38;;;;;;;13.50;100.00;99787.66;5117454;27;20133;-86
2022/01/29 05:08:46;;;;;;;3.55;1.10;;;;;;;13.43;100.00;99801.19;5113427;28;20429;-86
2022/01/29 05:11:15;;;;;;;3.20;1.05;;;;;;;13.67;100.00;99771.63;5104494;27;20127;-84
2022/01/29 05:13:43;;;;;;;5.05;1.08;;;;;;;13.79;100.00;99754.16;5116439;27;20119;-86
2022/01/29 05:27:09;;;;;;;2.55;0.90;;;;;;;13.25;100.00;99729.56;5135276;27;20386;-86
2022/01/29 05:29:37;;;;;;;4.18;1.10;;;;;;;13.39;100.00;99762.06;5134413;27;20130;-85
2022/01/29 05:32:07;;;;;;;3.17;0.90;;;;;;;12.98;100.00;99721.69;5121492;27;20047;-85
2022/01/29 05:34:35;;;;;;;5.80;1.10;;;;;;;13.39;100.00;99744.50;5148590;27;20043;-85
2022/01/29 05:37:03;;;;;;;3.50;1.27;;;;;;;13.17;100.00;99750.25;5128687;27;20048;-85
2022/01/29 05:39:31;;;;;;;5.97;1.35;;;;;;;13.21;100.00;99741.25;5121347;27;20065;-85
2022/01/29 05:41:59;;;;;;;3.42;1.10;;;;;;;13.71;100.00;99748.59;5119289;27;20100;-85
2022/01/29 05:44:26;;;;;;;5.40;1.00;;;;;;;13.28;100.00;99733.81;5095975;28;20047;-85
2022/01/29 05:46:53;;;;;;;5.97;1.15;;;;;;;13.54;100.00;99742.63;5114708;27;20507;-84
2022/01/29 05:49:20;;;;;;;5.40;1.20;;;;;;;13.38;100.00;99719.13;5129326;27;20051;-86
2022/01/29 05:51:47;;;;;;;5.50;1.40;;;;;;;12.85;100.00;99658.56;5132610;27;20701;-85
2022/01/29 05:54:14;;;;;;;4.35;1.40;;;;;;;13.44;100.00;99697.72;5132811;27;20096;-85
2022/01/29 05:56:41;;;;;;;2.33;1.08;;;;;;;13.56;100.00;99697.84;5132365;27;20055;-85
2022/01/29 05:59:07;;;;;;;2.53;0.90;;;;;;;14.00;100.00;99665.88;5112587;27;20066;-86
2022/01/29 06:01:34;;;;;;;3.90;1.00;;;;;;;13.88;100.00;99642.19;5132584;27;20477;-85
2022/01/29 06:04:02;;;;;;;4.53;1.02;;;;;;;13.72;100.00;99663.44;5115317;27;20138;-86
2022/01/29 06:06:28;;;;;;;3.50;1.00;;;;;;;13.66;100.00;99646.31;5133706;27;20045;-86
2022/01/29 06:08:55;;;;;;;4.00;1.05;;;;;;;13.75;100.00;99647.47;5132215;27;20047;-86
2022/01/29 06:11:22;;;;;;;3.85;1.00;;;;;;;13.53;100.00;99612.09;5112505;27;20047;-86
2022/01/29 06:13:48;;;;;;;2.30;0.90;;;;;;;13.91;100.00;99631.47;5113965;27;20048;-85
2022/01/29 06:16:15;;;;;;;3.10;1.00;;;;;;;13.80;100.00;99621.69;5133336;27;20039;-85
2022/01/29 06:18:42;;;;;;;4.82;0.80;;;;;;;13.78;100.00;99616.53;5130595;27;20051;-85
2022/01/29 06:21:11;;;;;;;2.47;1.00;;;;;;;13.87;100.00;99572.97;5113053;27;20469;-85
2022/01/29 06:23:39;;;;;;;4.28;0.90;;;;;;;13.75;100.00;99573.81;5130086;27;20131;-85
2022/01/29 06:26:09;;;;;;;2.30;0.90;;;;;;;14.02;100.00;99566.63;5110717;27;20149;-85
2022/01/29 06:28:37;;;;;;;2.05;0.90;;;;;;;14.09;100.00;99553.03;5114920;27;20077;-85
2022/01/29 06:31:05;;;;;;;3.55;0.95;;;;;;;14.24;100.00;99560.66;5121777;27;20491;-85
2022/01/29 06:33:32;;;;;;;3.35;0.90;;;;;;;13.85;100.00;99557.28;5115794;27;20455;-86
2022/01/29 06:35:59;;;;;;;4.00;1.08;;;;;;;13.64;100.00;99540.34;5133229;27;20047;-85
2022/01/29 06:38:26;;;;;;;2.38;1.00;;;;;;;14.21;100.00;99531.91;5107458;28;20048;-85
2022/01/29 06:40:53;;;;;;;3.75;1.17;;;;;;;14.14;100.00;99554.38;5100325;27;20491;-85
2022/01/29 06:43:19;;;;;;;2.17;1.02;;;;;;;13.86;100.00;99511.63;5133741;27;20061;-85
2022/01/29 06:45:46;;;;;;;5.53;2.35;;;;;;;13.80;100.00;99503.31;5115097;27;20053;-85
2022/01/29 06:48:14;;;;;;;4.90;1.55;;;;;;;14.06;100.00;99490.94;5125739;27;20052;-85
2022/01/29 06:50:42;;;;;;;6.57;1.23;;;;;;;13.90;100.00;99458.75;5127372;28;20134;-85
2022/01/29 06:53:08;;;;;;;3.90;1.08;;;;;;;14.00;100.00;99462.41;5111021;28;20048;-85
2022/01/29 06:55:36;;;;;;;3.22;1.30;;;;;;;13.83;100.00;99439.94;5114847;28;20391;-85
2022/01/29 06:58:03;;;;;;;2.45;0.85;;;;;;;14.23;100.00;99432.59;5115779;28;20052;-86
2022/01/29 07:00:50;;;;;;;3.70;1.05;;;;;;;14.04;100.00;99416.47;5110477;28;20048;-85
2022/01/29 07:03:17;;;;;;;5.20;1.10;;;;;;;13.80;100.00;99385.75;5114911;28;20054;-86
2022/01/29 07:05:44;;;;;;;4.30;1.08;;;;;;;13.86;100.00;99360.78;5110605;28;20134;-85
2022/01/29 07:08:11;;;;;;;4.68;1.00;;;;;;;13.24;100.00;99336.28;5117693;28;20051;-85
2022/01/29 07:10:38;;;;;;;2.97;1.00;;;;;;;13.25;100.00;99308.19;5107693;28;20477;-85
2022/01/29 07:13:07;;;;;;;1.58;0.80;;;;;;;13.65;100.00;99313.22;5121952;28;20130;-85
2022/01/29 07:15:37;;;;;;;3.15;1.23;;;;;;;13.78;100.00;99328.94;5103924;28;20047;-86
2022/01/29 07:18:03;;;;;;;3.05;0.80;;;;;;;14.10;100.00;99326.56;5102610;28;20094;-86
2022/01/29 07:20:31;;;;;;;1.90;0.80;;;;;;;13.82;100.00;99309.34;5120162;28;20041;-86
2022/01/29 07:22:58;;;;;;;1.73;0.88;;;;;;;13.99;100.00;99298.41;5125054;27;20054;-86
2022/01/29 07:25:28;;;;;;;2.72;1.00;;;;;;;13.79;100.00;99318.31;5129093;27;20042;-85
2022/01/29 07:27:55;;;;;;;0.60;0.60;;;;;;;14.01;100.00;99304.41;5115559;27;20055;-86
2022/01/29 07:30:21;;;;;;;4.13;0.90;;;;;;;13.98;100.00;99307.25;5109398;27;20154;-86
2022/01/29 07:32:48;;;;;;;1.15;0.65;;;;;;;13.83;100.00;99297.88;5111611;27;20116;-86
2022/01/29 07:35:15;;;;;;;2.45;0.80;;;;;;;13.42;100.00;99241.25;5111887;27;20048;-85
2022/01/29 07:37:42;;;;;;;1.38;0.70;;;;;;;14.12;100.00;99237.78;5127509;27;20048;-86
2022/01/29 07:40:09;;;;;;;1.15;0.70;;;;;;;14.18;100.00;99276.81;5132605;27;20050;-85
2022/01/29 07:42:37;;;;;;;0.60;0.60;;;;;;;14.27;100.00;99256.88;5102523;27;20049;-86
2022/01/29 07:45:04;;;;;;;1.40;0.70;;;;;;;13.97;100.00;99271.38;5130904;27;20484;-86
2022/01/29 07:47:31;;;;;;;2.55;0.70;;;;;;;14.26;100.00;99218.31;5126909;27;20457;-86
2022/01/29 07:49:58;;;;;;;1.77;0.70;;;;;;;14.31;100.00;99212.72;5130809;27;20054;-85
2022/01/29 07:52:25;;;;;;;0.85;0.70;;;;;;;14.09;98.93;99266.13;5112404;27;20122;-86
2022/01/29 07:54:51;;;;;;;1.63;0.80;;;;;;;14.36;87.56;99265.81;5127795;27;20047;-86
2022/01/29 07:57:18;;;;;;;2.78;0.80;;;;;;;14.55;77.42;99302.94;5128342;27;20046;-86
2022/01/29 07:59:45;;;;;;;4.18;0.90;;;;;;;14.66;71.85;99293.41;5113223;27;20057;-85
2022/01/29 08:02:12;;;;;;;4.32;1.02;;;;;;;14.72;64.22;99322.78;5113839;27;20039;-85
2022/01/29 08:04:39;;;;;;;7.72;2.38;;;;;;;14.14;60.54;99309.56;5125207;27;20048;-87
2022/01/29 08:07:06;;;;;;;9.75;1.75;;;;;;;14.23;60.18;99276.47;5132098;27;20043;-86
2022/01/29 08:09:32;;;;;;;8.80;1.85;;;;;;;14.06;60.09;99325.13;5126328;27;20043;-85
2022/01/29 08:11:59;;;;;;;12.25;2.15;;;;;;;14.25;60.11;99295.59;5112145;27;20055;-85
2022/01/29 08:14:26;;;;;;;9.80;2.22;;;;;;;13.91;61.56;99300.78;5122365;27;20069;-85
2022/01/29 08:16:53;;;;;;;11.40;3.00;;;;;;;13.90;61.92;99291.22;5128862;27;20408;-85
2022/01/29 08:19:19;;;;;;;10.18;2.33;;;;;;;13.90;62.45;99307.00;5105680;28;20092;-85
2022/01/29 08:21:46;;;;;;;12.05;2.40;;;;;;;13.76;64.12;99320.34;5120618;27;20048;-86
2022/01/29 08:24:13;;;;;;;15.90;2.67;;;;;;;13.74;63.64;99309.94;5126540;27;20554;-85
2022/01/29 08:26:40;;;;;;;16.30;2.90;;;;;;;13.50;64.28;99288.06;5112423;27;20052;-86
2022/01/29 08:29:07;;;;;;;11.50;2.83;;;;;;;13.62;65.21;99316.91;5112785;27;20051;-85
2022/01/29 08:31:33;;;;;;;16.80;3.08;;;;;;;13.55;65.72;99338.53;5126001;27;20495;-86
2022/01/29 08:34:01;;;;;;;15.73;3.90;;;;;;;13.51;67.60;99332.66;5106350;27;20067;-85
2022/01/29 08:36:28;;;;;;;16.63;3.13;;;;;;;13.49;67.42;99324.00;5108501;27;20054;-85
2022/01/29 08:38:56;;;;;;;16.15;3.22;;;;;;;13.16;70.34;99330.69;5124675;27;20435;-85
2022/01/29 08:41:23;;;;;;;15.65;3.13;;;;;;;13.52;71.35;99331.69;5107450;27;20093;-86
2022/01/29 08:43:50;;;;;;;19.48;3.95;;;;;;;13.11;72.23;99364.34;5124423;27;20599;-86
2022/01/29 08:46:17;;;;;;;14.13;3.22;;;;;;;12.73;72.55;99360.81;5108541;27;20100;-86
2022/01/29 08:48:43;;;;;;;16.50;3.20;;;;;;;12.95;71.14;99351.44;5128332;27;20055;-85
2022/01/29 08:51:10;;;;;;;22.67;4.35;;;;;;;13.02;72.12;99386.00;5122687;27;20053;-85
2022/01/29 08:53:37;;;;;;;15.82;3.10;;;;;;;12.68;71.62;99352.41;5123536;27;20469;-85
2022/01/29 08:56:04;;;;;;;13.75;3.20;;;;;;;13.00;71.30;99366.91;5124562;27;20043;-86
2022/01/29 08:58:31;;;;;;;14.75;2.88;;;;;;;13.21;71.77;99403.94;5129099;27;20040;-87
2022/01/29 09:00:59;;;;;;;15.50;3.25;;;;;;;13.19;71.55;99393.56;5126665;27;20518;-85
2022/01/29 09:03:26;;;;;;;10.88;2.55;;;;;;;12.91;71.58;99363.13;5126670;27;20079;-85
2022/01/29 09:05:52;;;;;;;14.35;2.53;;;;;;;12.37;73.45;99395.63;5126437;27;20484;-85
2022/01/29 09:08:20;;;;;;;12.68;2.45;;;;;;;12.69;73.23;99372.44;5104750;27;20047;-85
2022/01/29 09:10:47;;;;;;;13.93;2.95;;;;;;;12.94;72.36;99365.50;5123903;27;20369;-83
2022/01/29 09:13:14;;;;;;;14.07;3.20;;;;;;;12.93;72.45;99350.72;5109387;27;20396;-83
2022/01/29 09:15:41;;;;;;;14.35;3.03;;;;;;;13.20;71.52;99336.59;5107165;27;20058;-85
2022/01/29 09:18:08;;;;;;;14.52;2.60;;;;;;;12.63;72.98;99320.34;5125983;27;20052;-85
2022/01/29 09:20:35;;;;;;;11.07;2.67;;;;;;;12.65;74.65;99342.09;5126724;27;20158;-85
2022/01/29 09:23:02;;;;;;;13.73;2.78;;;;;;;12.40;75.16;99324.56;5115696;27;20051;-85
2022/01/29 09:25:29;;;;;;;14.02;2.60;;;;;;;12.48;75.47;99339.78;5124871;27;20062;-84
2022/01/29 09:27:55;;;;;;;12.13;2.63;;;;;;;12.48;76.53;99339.78;5113064;27;20049;-84
2022/01/29 09:30:23;;;;;;;12.52;2.58;;;;;;;12.76;77.00;99354.50;5106716;27;20059;-84
2022/01/29 09:32:50;;;;;;;10.65;2.00;;;;;;;12.48;77.45;99352.91;5126358;27;20137;-85
2022/01/29 09:35:17;;;;;;;11.50;2.92;;;;;;;12.56;77.94;99334.03;5127239;27;20713;-85
2022/01/29 09:37:44;;;;;;;12.52;2.90;;;;;;;12.43;78.11;99357.63;5104379;27;20043;-84
2022/01/29 09:40:12;;;;;;;13.82;2.45;;;;;;;12.57;76.78;99340.94;5105448;27;20050;-84
2022/01/29 09:42:40;;;;;;;10.18;2.50;;;;;;;12.61;77.54;99379.19;5120148;27;20053;-85
2022/01/29 09:45:08;;;;;;;11.30;2.20;;;;;;;12.59;78.82;99388.94;5124276;27;20047;-85
2022/01/29 09:47:37;;;;;;;9.70;2.20;;;;;;;12.51;79.21;99397.31;5113104;27;20044;-84
2022/01/29 09:50:05;;;;;;;10.43;2.35;;;;;;;12.42;78.85;99393.53;5124338;27;20510;-85
2022/01/29 09:52:32;;;;;;;13.88;2.63;;;;;;;12.70;79.70;99399.56;5129007;27;20043;-85
2022/01/29 09:54:59;;;;;;;10.40;2.33;;;;;;;12.43;80.26;99397.00;5113296;27;20039;-85
2022/01/29 09:57:26;;;;;;;9.20;2.05;;;;;;;12.62;79.80;99436.81;5126643;27;20582;-86
2022/01/29 09:59:53;;;;;;;16.60;3.33;;;;;;;12.72;80.18;99455.44;5130062;27;20050;-85
2022/01/29 10:02:20;;;;;;;9.13;1.85;;;;;;;12.65;80.59;99477.81;5130692;27;20046;-85
2022/01/29 10:04:50;;;;;;;8.65;1.90;;;;;;;13.13;80.17;99495.63;5103767;28;20500;-85
2022/01/29 10:07:29;;;;;;;10.02;2.40;;;;;;;13.09;80.04;99505.53;5111973;27;20047;-85
2022/01/29 10:09:57;;;;;;;7.80;1.60;;;;;;;12.84;80.31;99496.66;5122465;27;20049;-85
2022/01/29 10:12:30;;;;;;;8.82;1.80;;;;;;;12.94;82.00;99538.06;5108250;27;20049;-85
2022/01/29 10:15:03;;;;;;;6.10;1.35;;;;;;;13.06;82.28;99543.34;5125031;27;20051;-85
2022/01/29 10:17:56;;;;;;;8.10;2.10;;;;;;;13.24;82.63;99558.81;5105213;27;20051;-86
2022/01/29 10:20:26;;;;;;;5.93;1.45;;;;;;;13.22;83.23;99582.56;5103431;28;20417;-86
2022/01/29 10:22:58;;;;;;;4.57;1.30;;;;;;;13.17;83.99;99604.84;5104400;27;20060;-84
2022/01/29 10:25:30;;;;;;;6.53;1.67;;;;;;;13.43;82.02;99622.38;5124533;27;20074;-85
2022/01/29 10:28:21;;;;;;;4.50;1.20;;;;;;;13.44;82.03;99668.78;5123456;27;20390;-85
2022/01/29 10:30:47;;;;;;;4.70;1.15;;;;;;;13.04;86.71;99715.19;5114356;27;20404;-85
2022/01/29 10:33:19;;;;;;;2.40;0.98;;;;;;;12.92;89.52;99724.69;5123826;27;20654;-85
2022/01/29 10:35:51;;;;;;;3.30;1.00;;;;;;;13.20;93.88;99730.81;5103961;28;20051;-86
2022/01/29 10:38:23;;;;;;;3.92;1.20;;;;;;;12.39;100.00;99781.38;5120796;27;20051;-86
2022/01/29 10:41:11;;;;;;;8.45;1.50;;;;;;;11.80;100.00;99813.66;5107520;27;20043;-86
2022/01/29 10:44:21;;;;;;;7.95;1.67;;;;;;;11.41;100.00;99877.88;5120796;27;20100;-85
2022/01/29 10:46:50;;;;;;;5.63;1.90;;;;;;;11.12;100.00;99900.41;5122694;27;20100;-84
2022/01/29 10:49:24;;;;;;;8.07;2.00;;;;;;;11.11;100.00;99954.56;5123705;27;20043;-88
2022/01/29 10:52:04;;;;;;;8.52;1.70;;;;;;;10.66;100.00;99953.41;5122965;27;20054;-87
2022/01/29 10:54:35;;;;;;;9.93;1.92;;;;;;;10.68;100.00;99943.69;5103977;27;20526;-87
2022/01/29 10:57:08;;;;;;;7.72;1.60;;;;;;;10.66;100.00;100044.16;5124888;27;20504;-88
2022/01/29 10:59:38;;;;;;;14.50;2.80;;;;;;;11.07;100.00;99992.34;5107828;28;20055;-86
2022/01/29 11:02:08;;;;;;;4.28;1.67;;;;;;;10.05;100.00;99983.38;5109708;28;20039;-87
2022/01/29 11:04:37;;;;;;;9.30;1.90;;;;;;;10.83;100.00;100010.16;5121007;28;20064;-87
2022/01/29 11:07:06;;;;;;;4.45;1.17;;;;;;;10.79;100.00;100034.81;5111665;28;20047;-87
2022/01/29 11:09:33;;;;;;;7.75;1.35;;;;;;;10.28;100.00;100021.53;5111564;28;20673;-86
2022/01/29 11:12:04;;;;;;;4.75;1.50;;;;;;;10.45;100.00;100073.94;5123589;28;20043;-87
2022/01/29 11:14:33;;;;;;;6.50;1.45;;;;;;;10.55;100.00;100042.94;5123643;27;20397;-87
2022/01/29 11:17:00;;;;;;;11.55;1.80;;;;;;;10.94;98.15;100110.00;5103699;28;20474;-87
2022/01/29 11:19:27;;;;;;;10.68;1.50;;;;;;;10.52;95.69;100107.69;5122947;28;20048;-87
2022/01/29 11:21:57;;;;;;;10.07;1.92;;;;;;;10.88;87.45;100117.31;5110018;28;20050;-87
2022/01/29 11:24:27;;;;;;;8.45;1.60;;;;;;;10.79;82.26;100113.34;5120997;28;20577;-87
2022/01/29 11:26:54;;;;;;;8.15;1.85;;;;;;;10.67;81.71;100137.50;5121322;28;20054;-86
2022/01/29 11:29:30;;;;;;;10.75;1.95;;;;;;;10.61;80.02;100149.97;5114379;28;20056;-86
2022/01/29 11:32:21;;;;;;;9.32;1.83;;;;;;;10.73;80.07;100177.34;5114505;28;20067;-87
2022/01/29 11:35:04;;;;;;;9.15;2.97;;;;;;;10.29;79.90;100229.94;5114698;28;20047;-87
2022/01/29 11:37:40;;;;;;;14.27;2.15;;;;;;;10.41;78.16;100208.47;5132011;28;20521;-88